createdAt,value
2022-10-03T00:04:36.813Z,67
2022-10-03T00:14:44.188Z,68
2022-10-03T00:24:51.559Z,70
2022-10-03T00:34:59.093Z,70
2022-10-03T00:45:06.448Z,70
2022-10-03T00:55:13.835Z,69
2022-10-03T01:05:21.299Z,70
2022-10-03T01:15:30.012Z,71
2022-10-03T01:25:37.383Z,71
2022-10-03T01:35:45.860Z,71
2022-10-03T01:45:53.279Z,70
2022-10-03T01:56:00.657Z,70
2022-10-03T02:06:08.029Z,70
2022-10-03T02:16:15.454Z,70
2022-10-03T02:26:22.937Z,71
2022-10-03T02:36:30.409Z,71
2022-10-03T02:46:37.927Z,73
2022-10-03T02:56:46.121Z,72
2022-10-03T03:06:53.573Z,73
2022-10-03T03:17:01.023Z,73
2022-10-03T03:27:08.417Z,72
2022-10-03T03:37:15.911Z,71
2022-10-03T03:47:23.308Z,71
2022-10-03T03:57:30.866Z,70
2022-10-03T04:07:38.246Z,71
2022-10-03T04:17:45.685Z,72
2022-10-03T04:27:53.233Z,72
2022-10-03T04:38:00.509Z,72
2022-10-03T04:48:09.282Z,72
2022-10-03T04:58:19.204Z,72
2022-10-03T05:08:27.774Z,72
2022-10-03T05:18:36.390Z,73
2022-10-03T05:28:43.767Z,72
2022-10-03T05:38:51.286Z,72
2022-10-03T05:49:00.073Z,73
2022-10-03T05:59:05.056Z,73
2022-10-03T06:09:12.623Z,73
2022-10-03T06:19:20.150Z,73
2022-10-03T06:29:27.624Z,72
2022-10-03T06:39:35.090Z,72
2022-10-03T06:49:44.289Z,71
2022-10-03T06:59:51.726Z,71
2022-10-03T07:10:00.375Z,69
2022-10-03T07:20:07.782Z,68
2022-10-03T07:30:15.154Z,68
2022-10-03T07:40:22.578Z,67
2022-10-03T07:50:29.923Z,67
2022-10-03T08:00:40.500Z,64
2022-10-03T08:10:43.028Z,61
2022-10-03T08:20:50.553Z,57
2022-10-03T08:30:58.038Z,55
2022-10-03T08:41:05.406Z,53
2022-10-03T08:51:12.855Z,52
2022-10-03T09:01:20.487Z,51
2022-10-03T09:11:27.847Z,50
2022-10-03T09:21:37.249Z,50
2022-10-03T09:31:42.290Z,51
2022-10-03T09:41:49.855Z,53
2022-10-03T10:01:59.671Z,50
2022-10-03T10:12:07.152Z,49
2022-10-03T10:22:14.558Z,48
2022-10-03T10:32:21.842Z,49
2022-10-03T10:42:28.449Z,49
2022-10-03T10:52:35.956Z,49
2022-10-03T11:12:45.643Z,52
2022-10-03T11:32:55.461Z,55
2022-10-03T12:03:07.468Z,54
2022-10-03T12:13:14.969Z,54
2022-10-03T12:33:25.867Z,53
2022-10-03T12:53:35.574Z,55
2022-10-03T13:03:43.062Z,55
2022-10-03T13:33:55.090Z,57
2022-10-03T13:44:02.474Z,58
2022-10-03T13:54:11.273Z,57
2022-10-03T14:04:18.910Z,57
2022-10-03T14:14:26.421Z,55
2022-10-03T14:24:36.745Z,54
2022-10-03T14:44:42.224Z,54
2022-10-03T14:54:49.895Z,54
2022-10-03T15:14:59.618Z,58
2022-10-03T15:25:07.065Z,58
2022-10-03T15:45:16.761Z,57
2022-10-03T15:55:24.206Z,58
2022-10-03T16:05:31.664Z,59
2022-10-03T16:15:39.265Z,58
2022-10-03T16:25:39.466Z,59
2022-10-03T16:35:49.469Z,58
2022-10-03T16:45:48.409Z,61
2022-10-03T16:55:59.331Z,61
2022-10-03T17:06:03.338Z,62
2022-10-03T17:16:08.712Z,62
2022-10-03T17:26:16.214Z,63
2022-10-03T17:36:23.638Z,63
2022-10-03T17:46:31.161Z,64
2022-10-03T17:56:38.600Z,64
2022-10-03T18:06:47.447Z,64
2022-10-03T18:16:54.911Z,64
2022-10-03T18:27:02.424Z,64
2022-10-03T18:37:10.072Z,64
2022-10-03T18:47:17.635Z,65
2022-10-03T18:57:25.101Z,65
2022-10-03T19:07:32.706Z,65
2022-10-03T19:17:40.265Z,66
2022-10-03T19:27:47.789Z,67
2022-10-03T19:37:55.328Z,68
2022-10-03T19:48:02.902Z,69
2022-10-03T19:58:10.450Z,69
2022-10-03T20:08:17.493Z,69
2022-10-03T20:18:24.836Z,69
2022-10-03T20:28:32.354Z,69
2022-10-03T20:38:39.746Z,70
2022-10-03T20:48:47.267Z,69
2022-10-03T20:58:54.751Z,70
2022-10-03T21:09:02.267Z,70
2022-10-03T21:19:09.721Z,70
2022-10-03T21:29:10.015Z,71
2022-10-03T21:39:17.633Z,71
2022-10-03T21:49:25.088Z,71
2022-10-03T21:59:32.582Z,71
2022-10-03T22:09:40.200Z,72
2022-10-03T22:19:47.798Z,72
2022-10-03T22:29:55.252Z,72
2022-10-03T22:40:02.773Z,72
2022-10-03T22:50:10.238Z,73
2022-10-03T23:00:17.709Z,73
2022-10-03T23:10:25.320Z,73
2022-10-03T23:20:32.866Z,74
2022-10-03T23:30:40.302Z,74
2022-10-03T23:40:47.861Z,74
2022-10-03T23:50:55.358Z,74
